createdAt,value
2018-03-06T00:00:12.422Z,5.40
2018-03-06T00:02:39.874Z,5.20
2018-03-06T00:05:07.329Z,5.20
2018-03-06T00:07:34.781Z,5.20
2018-03-06T00:10:02.238Z,5.10
2018-03-06T00:12:29.697Z,5.10
2018-03-06T00:14:57.150Z,5.10
2018-03-06T00:17:24.616Z,5.10
2018-03-06T00:19:52.069Z,5.10
2018-03-06T00:22:20.288Z,5.00
2018-03-06T00:24:48.508Z,5.00
2018-03-06T00:27:15.966Z,5.00
2018-03-06T00:29:43.413Z,5.00
2018-03-06T00:32:10.883Z,4.90
2018-03-06T00:34:38.346Z,4.80
2018-03-06T00:37:05.806Z,4.80
2018-03-06T00:39:33.252Z,4.80
2018-03-06T00:42:00.710Z,4.70
2018-03-06T00:44:28.208Z,4.70
2018-03-06T00:46:55.633Z,4.60
2018-03-06T00:49:23.085Z,4.50
2018-03-06T00:51:50.546Z,4.50
2018-03-06T00:54:17.994Z,4.50
2018-03-06T00:56:45.453Z,4.50
2018-03-06T00:59:13.669Z,4.40
2018-03-06T01:01:41.902Z,4.40
2018-03-06T01:04:09.360Z,4.40
2018-03-06T01:06:36.804Z,4.40
2018-03-06T01:09:04.266Z,4.30
2018-03-06T01:11:32.485Z,4.20
2018-03-06T01:14:00.713Z,4.20
2018-03-06T01:16:28.167Z,4.20
2018-03-06T01:18:55.625Z,4.10
2018-03-06T01:21:23.078Z,4.10
2018-03-06T01:23:50.534Z,4.10
2018-03-06T01:26:17.990Z,4.10
2018-03-06T01:28:45.452Z,4.10
2018-03-06T01:31:12.900Z,4.10
2018-03-06T01:33:40.361Z,4.00
2018-03-06T01:36:07.813Z,4.00
2018-03-06T01:38:35.276Z,4.00
2018-03-06T01:41:02.725Z,3.90
2018-03-06T01:43:30.177Z,3.90
2018-03-06T01:45:57.633Z,3.90
2018-03-06T01:48:25.091Z,3.90
2018-03-06T01:50:52.536Z,3.90
2018-03-06T01:53:20.001Z,3.80
2018-03-06T01:55:47.447Z,3.80
2018-03-06T01:58:14.897Z,3.80
2018-03-06T02:00:42.353Z,3.70
2018-03-06T02:03:09.812Z,3.70
2018-03-06T02:05:37.265Z,3.80
2018-03-06T02:08:04.730Z,3.80
2018-03-06T02:10:32.177Z,3.80
2018-03-06T02:12:59.633Z,3.70
2018-03-06T02:15:27.089Z,3.60
2018-03-06T02:17:54.541Z,3.60
2018-03-06T02:20:22.003Z,3.50
2018-03-06T02:22:49.457Z,3.50
2018-03-06T02:25:16.910Z,3.50
2018-03-06T02:27:44.362Z,3.50
2018-03-06T02:30:11.817Z,3.50
2018-03-06T02:32:39.272Z,3.50
2018-03-06T02:35:06.737Z,3.40
2018-03-06T02:37:34.184Z,3.40
2018-03-06T02:40:01.651Z,3.40
2018-03-06T02:42:29.106Z,3.40
2018-03-06T02:44:56.561Z,3.40
2018-03-06T02:47:24.009Z,3.40
2018-03-06T02:49:51.477Z,3.30
2018-03-06T02:52:18.925Z,3.30
2018-03-06T02:54:46.386Z,3.20
2018-03-06T02:57:13.838Z,3.20
2018-03-06T02:59:41.297Z,3.20
2018-03-06T03:02:08.749Z,3.20
2018-03-06T03:04:36.977Z,3.20
2018-03-06T03:07:04.421Z,3.20
2018-03-06T03:09:31.878Z,3.20
2018-03-06T03:11:59.342Z,3.20
2018-03-06T03:14:26.798Z,3.20
2018-03-06T03:16:54.261Z,3.10
2018-03-06T03:19:21.709Z,3.10
2018-03-06T03:21:49.165Z,3.10
2018-03-06T03:24:16.624Z,3.00
2018-03-06T03:26:44.081Z,3.00
2018-03-06T03:29:11.538Z,2.90
2018-03-06T03:31:39.000Z,2.90
2018-03-06T03:34:06.445Z,2.90
2018-03-06T03:36:33.905Z,2.90
2018-03-06T03:39:01.356Z,2.90
2018-03-06T03:41:28.818Z,2.90
2018-03-06T03:43:56.269Z,2.90
2018-03-06T03:46:23.729Z,2.80
2018-03-06T03:48:51.179Z,2.80
2018-03-06T03:51:18.636Z,2.80
2018-03-06T03:53:46.085Z,2.80
2018-03-06T03:56:13.554Z,2.80
2018-03-06T03:58:40.998Z,2.80
2018-03-06T04:01:08.470Z,2.80
2018-03-06T04:03:35.917Z,2.70
2018-03-06T04:06:03.386Z,2.70
2018-03-06T04:08:30.836Z,2.70
2018-03-06T04:10:58.301Z,2.70
2018-03-06T04:13:26.522Z,2.70
2018-03-06T04:15:54.008Z,2.70
2018-03-06T04:18:21.462Z,2.70
2018-03-06T04:20:48.921Z,2.70
2018-03-06T04:23:16.385Z,2.70
2018-03-06T04:25:43.838Z,2.70
2018-03-06T04:28:11.299Z,2.70
2018-03-06T04:30:38.757Z,2.60
2018-03-06T04:33:06.217Z,2.70
2018-03-06T04:35:33.669Z,2.70
2018-03-06T04:38:01.125Z,2.70
2018-03-06T04:40:28.587Z,2.60
2018-03-06T04:42:56.049Z,2.60
2018-03-06T04:45:23.508Z,2.60
2018-03-06T04:47:50.977Z,2.60
2018-03-06T04:50:18.435Z,2.50
2018-03-06T04:52:45.903Z,2.50
2018-03-06T04:55:13.354Z,2.50
2018-03-06T04:57:40.814Z,2.50
2018-03-06T05:00:08.273Z,2.50
2018-03-06T05:02:35.741Z,2.50
2018-03-06T05:05:03.961Z,2.50
2018-03-06T05:07:31.417Z,2.50
2018-03-06T05:09:58.869Z,2.50
2018-03-06T05:12:26.325Z,2.50
2018-03-06T05:14:53.773Z,2.50
2018-03-06T05:17:21.233Z,2.50
2018-03-06T05:19:48.685Z,2.50
2018-03-06T05:22:16.145Z,2.50
2018-03-06T05:24:43.603Z,2.50
2018-03-06T05:27:11.057Z,2.50
2018-03-06T05:29:38.501Z,2.50
2018-03-06T05:32:05.966Z,2.50
2018-03-06T05:34:33.414Z,2.50
2018-03-06T05:37:00.871Z,2.40
2018-03-06T05:39:28.330Z,2.40
2018-03-06T05:41:55.776Z,2.40
2018-03-06T05:44:23.241Z,2.50
2018-03-06T05:46:50.693Z,2.40
2018-03-06T05:49:18.150Z,2.40
2018-03-06T05:51:45.593Z,2.40
2018-03-06T05:54:13.818Z,2.40
2018-03-06T05:56:41.266Z,2.40
2018-03-06T05:59:09.489Z,2.40
2018-03-06T06:01:37.704Z,2.40
2018-03-06T06:04:05.162Z,2.40
2018-03-06T06:06:32.605Z,2.40
2018-03-06T06:09:00.069Z,2.40
2018-03-06T06:11:27.522Z,2.40
2018-03-06T06:13:55.801Z,2.30
2018-03-06T06:16:23.253Z,2.40
2018-03-06T06:18:50.709Z,2.40
2018-03-06T06:21:18.186Z,2.40
2018-03-06T06:23:45.623Z,2.40
2018-03-06T06:26:13.083Z,2.40
2018-03-06T06:28:40.542Z,2.50
2018-03-06T06:31:07.994Z,2.50
2018-03-06T06:33:35.454Z,2.50
2018-03-06T06:36:02.905Z,2.50
2018-03-06T06:38:30.365Z,2.50
2018-03-06T06:40:57.817Z,2.50
2018-03-06T06:43:25.280Z,2.50
2018-03-06T06:45:52.733Z,2.60
2018-03-06T06:48:20.182Z,2.60
2018-03-06T06:50:47.632Z,2.60
2018-03-06T06:53:15.085Z,2.60
2018-03-06T06:55:42.547Z,2.70
2018-03-06T06:58:10.007Z,2.70
2018-03-06T07:00:37.461Z,2.80
2018-03-06T07:03:04.914Z,2.80
2018-03-06T07:05:32.374Z,2.80
2018-03-06T07:07:59.828Z,2.80
2018-03-06T07:10:27.337Z,2.90
2018-03-06T07:12:54.745Z,2.90
2018-03-06T07:15:22.208Z,3.00
2018-03-06T07:17:49.657Z,3.00
2018-03-06T07:20:17.117Z,3.10
2018-03-06T07:22:44.566Z,3.20
2018-03-06T07:25:12.034Z,3.20
2018-03-06T07:27:39.490Z,3.20
2018-03-06T07:30:06.954Z,3.30
2018-03-06T07:32:34.404Z,3.40
2018-03-06T07:35:01.872Z,3.40
2018-03-06T07:37:29.321Z,3.50
2018-03-06T07:39:56.785Z,3.50
2018-03-06T07:42:24.238Z,3.60
2018-03-06T07:44:51.692Z,3.70
2018-03-06T07:47:19.145Z,3.70
2018-03-06T07:49:46.609Z,3.80
2018-03-06T07:52:14.058Z,3.80
2018-03-06T07:54:41.521Z,3.90
2018-03-06T07:57:08.974Z,4.00
2018-03-06T07:59:36.425Z,4.00
2018-03-06T08:02:03.891Z,4.10
2018-03-06T08:04:31.365Z,4.20
2018-03-06T08:06:58.825Z,4.30
2018-03-06T08:09:26.281Z,4.30
2018-03-06T08:11:53.741Z,4.40
2018-03-06T08:14:21.195Z,4.40
2018-03-06T08:16:48.653Z,4.50
2018-03-06T08:19:16.110Z,4.50
2018-03-06T08:21:43.561Z,4.60
2018-03-06T08:24:11.018Z,4.70
2018-03-06T08:26:38.476Z,4.70
2018-03-06T08:29:05.925Z,4.80
2018-03-06T08:31:33.387Z,4.90
2018-03-06T08:34:00.837Z,5.00
2018-03-06T08:36:28.288Z,5.00
2018-03-06T08:38:55.735Z,5.10
2018-03-06T08:41:23.191Z,5.10
2018-03-06T08:43:50.649Z,5.20
2018-03-06T08:46:18.109Z,5.20
2018-03-06T08:48:45.559Z,5.30
2018-03-06T08:51:13.021Z,5.40
2018-03-06T08:53:40.477Z,5.40
2018-03-06T08:56:07.937Z,5.50
2018-03-06T08:58:35.389Z,5.60
2018-03-06T09:01:02.845Z,5.70
2018-03-06T09:03:30.319Z,5.70
2018-03-06T09:05:57.769Z,5.80
2018-03-06T09:08:25.233Z,5.90
2018-03-06T09:10:52.685Z,5.90
2018-03-06T09:13:20.141Z,6.00
2018-03-06T09:15:47.598Z,6.00
2018-03-06T09:18:15.050Z,6.00
2018-03-06T09:20:42.501Z,6.10
2018-03-06T09:23:09.961Z,6.10
2018-03-06T09:25:37.414Z,6.20
2018-03-06T09:28:04.881Z,6.20
2018-03-06T09:30:32.341Z,6.30
2018-03-06T09:32:59.788Z,6.40
2018-03-06T09:35:27.241Z,6.40
2018-03-06T09:37:55.462Z,6.60
2018-03-06T09:40:23.681Z,6.60
2018-03-06T09:42:51.137Z,6.60
2018-03-06T09:45:18.578Z,6.70
2018-03-06T09:47:46.045Z,6.80
2018-03-06T09:50:13.496Z,6.90
2018-03-06T09:52:40.957Z,7.00
2018-03-06T09:55:08.409Z,7.00
2018-03-06T09:57:35.927Z,7.10
2018-03-06T10:00:03.329Z,7.20
2018-03-06T10:02:30.794Z,7.30
2018-03-06T10:04:58.245Z,7.30
2018-03-06T10:07:25.701Z,7.40
2018-03-06T10:09:53.169Z,7.40
2018-03-06T10:12:20.621Z,7.50
2018-03-06T10:14:48.082Z,7.50
2018-03-06T10:17:15.529Z,7.50
2018-03-06T10:19:42.993Z,7.50
2018-03-06T10:22:10.445Z,7.60
2018-03-06T10:24:37.901Z,7.70
2018-03-06T10:27:05.353Z,7.70
2018-03-06T10:29:32.813Z,7.80
2018-03-06T10:32:00.265Z,8.00
2018-03-06T10:34:27.729Z,8.00
2018-03-06T10:36:55.181Z,8.00
2018-03-06T10:39:22.643Z,8.10
2018-03-06T10:41:50.093Z,8.10
2018-03-06T10:44:17.549Z,8.20
2018-03-06T10:46:45.008Z,8.20
2018-03-06T10:49:12.474Z,8.30
2018-03-06T10:51:39.926Z,8.40
2018-03-06T10:54:07.389Z,8.50
2018-03-06T10:56:34.837Z,8.50
2018-03-06T10:59:02.302Z,8.50
2018-03-06T11:01:32.721Z,8.50
2018-03-06T11:04:00.181Z,8.50
2018-03-06T11:06:27.637Z,8.50
2018-03-06T11:08:55.117Z,8.60
2018-03-06T11:11:22.587Z,8.60
2018-03-06T11:13:50.018Z,8.60
2018-03-06T11:16:17.476Z,8.70
2018-03-06T11:18:44.929Z,8.70
2018-03-06T11:21:12.381Z,8.70
2018-03-06T11:23:39.829Z,8.60
2018-03-06T11:26:07.291Z,8.70
2018-03-06T11:28:34.740Z,8.70
2018-03-06T11:31:02.201Z,8.80
2018-03-06T11:33:30.418Z,8.90
2018-03-06T11:35:58.650Z,9.00
2018-03-06T11:38:26.101Z,9.00
2018-03-06T11:40:53.558Z,9.00
2018-03-06T11:43:21.006Z,9.10
2018-03-06T11:45:48.465Z,9.10
2018-03-06T11:48:15.921Z,9.10
2018-03-06T11:50:43.382Z,9.20
2018-03-06T11:53:10.833Z,9.20
2018-03-06T11:55:38.293Z,9.20
2018-03-06T11:58:05.741Z,9.30
2018-03-06T12:00:33.196Z,9.30
2018-03-06T12:03:00.646Z,9.30
2018-03-06T12:05:28.104Z,9.30
2018-03-06T12:07:55.551Z,9.30
2018-03-06T12:10:23.007Z,9.40
2018-03-06T12:12:50.469Z,9.40
2018-03-06T12:15:17.937Z,9.40
2018-03-06T12:17:45.389Z,9.40
2018-03-06T12:20:12.854Z,9.40
2018-03-06T12:22:40.308Z,9.50
2018-03-06T12:25:07.757Z,9.50
2018-03-06T12:27:35.209Z,9.60
2018-03-06T12:30:02.685Z,9.60
2018-03-06T12:32:30.125Z,9.70
2018-03-06T12:34:57.583Z,9.80
2018-03-06T12:37:25.045Z,9.80
2018-03-06T12:39:52.488Z,9.90
2018-03-06T12:42:19.951Z,9.90
2018-03-06T12:44:47.398Z,9.90
2018-03-06T12:47:14.852Z,9.90
2018-03-06T12:49:42.298Z,9.90
2018-03-06T12:52:09.753Z,9.90
2018-03-06T12:54:37.209Z,9.90
2018-03-06T12:57:04.666Z,9.80
2018-03-06T12:59:32.123Z,9.80
2018-03-06T13:02:00.341Z,9.90
2018-03-06T13:04:27.793Z,9.90
2018-03-06T13:06:55.256Z,10.00
2018-03-06T13:09:22.714Z,10.00
2018-03-06T13:11:50.169Z,10.10
2018-03-06T13:14:17.620Z,10.20
2018-03-06T13:16:45.081Z,10.30
2018-03-06T13:19:12.545Z,10.30
2018-03-06T13:21:40.001Z,10.40
2018-03-06T13:24:07.461Z,10.40
2018-03-06T13:26:34.925Z,10.30
2018-03-06T13:29:02.405Z,10.30
2018-03-06T13:31:29.857Z,10.30
2018-03-06T13:33:58.091Z,10.30
2018-03-06T13:36:25.553Z,10.30
2018-03-06T13:38:52.994Z,10.30
2018-03-06T13:41:20.468Z,10.30
2018-03-06T13:43:47.922Z,10.30
2018-03-06T13:46:15.374Z,10.30
2018-03-06T13:48:42.833Z,10.30
2018-03-06T13:51:10.286Z,10.30
2018-03-06T13:53:37.750Z,10.30
2018-03-06T13:56:05.205Z,10.40
2018-03-06T13:58:32.669Z,10.40
2018-03-06T14:01:00.121Z,10.50
2018-03-06T14:03:27.581Z,10.50
2018-03-06T14:05:55.048Z,10.50
2018-03-06T14:08:22.512Z,10.50
2018-03-06T14:10:49.963Z,10.50
2018-03-06T14:13:17.421Z,10.50
2018-03-06T14:15:44.877Z,10.60
2018-03-06T14:18:12.338Z,10.50
2018-03-06T14:20:39.789Z,10.50
2018-03-06T14:23:07.290Z,10.50
2018-03-06T14:25:35.481Z,10.50
2018-03-06T14:28:02.950Z,10.50
2018-03-06T14:30:30.401Z,10.50
2018-03-06T14:32:58.641Z,10.50
2018-03-06T14:35:26.110Z,10.50
2018-03-06T14:37:53.564Z,10.50
2018-03-06T14:40:21.018Z,10.40
2018-03-06T14:42:48.489Z,10.40
2018-03-06T14:45:15.941Z,10.40
2018-03-06T14:47:43.406Z,10.40
2018-03-06T14:50:10.857Z,10.40
2018-03-06T14:52:38.321Z,10.50
2018-03-06T14:55:05.773Z,10.50
2018-03-06T14:57:33.232Z,10.50
2018-03-06T15:00:00.692Z,10.50
2018-03-06T15:02:28.157Z,10.60
2018-03-06T15:04:55.614Z,10.60
2018-03-06T15:07:23.061Z,10.60
2018-03-06T15:09:50.524Z,10.70
2018-03-06T15:12:17.976Z,10.70
2018-03-06T15:14:45.437Z,10.80
2018-03-06T15:17:12.892Z,10.80
2018-03-06T15:19:40.368Z,10.80
2018-03-06T15:22:07.833Z,10.80
2018-03-06T15:24:35.313Z,10.80
2018-03-06T15:27:03.533Z,10.70
2018-03-06T15:29:31.002Z,10.60
2018-03-06T15:31:58.462Z,10.60
2018-03-06T15:34:25.921Z,10.60
2018-03-06T15:36:53.422Z,10.60
2018-03-06T15:39:20.842Z,10.60
2018-03-06T15:41:48.302Z,10.60
2018-03-06T15:44:15.767Z,10.50
2018-03-06T15:46:43.221Z,10.50
2018-03-06T15:49:10.697Z,10.50
2018-03-06T15:51:38.912Z,10.40
2018-03-06T15:54:06.376Z,10.40
2018-03-06T15:56:33.825Z,10.40
2018-03-06T15:59:01.297Z,10.40
2018-03-06T16:01:28.765Z,10.30
2018-03-06T16:03:56.221Z,10.30
2018-03-06T16:06:23.680Z,10.30
2018-03-06T16:08:51.144Z,10.30
2018-03-06T16:11:18.601Z,10.30
2018-03-06T16:13:46.060Z,10.20
2018-03-06T16:16:13.521Z,10.20
2018-03-06T16:18:40.996Z,10.10
2018-03-06T16:21:09.218Z,10.10
2018-03-06T16:23:36.674Z,10.10
2018-03-06T16:26:04.145Z,10.10
2018-03-06T16:28:31.610Z,10.00
2018-03-06T16:30:59.072Z,10.00
2018-03-06T16:33:26.529Z,9.90
2018-03-06T16:35:53.992Z,9.90
2018-03-06T16:38:21.440Z,9.80
2018-03-06T16:40:48.893Z,9.80
2018-03-06T16:43:16.345Z,9.70
2018-03-06T16:45:43.801Z,9.70
2018-03-06T16:48:11.272Z,9.70
2018-03-06T16:50:38.721Z,9.60
2018-03-06T16:53:06.184Z,9.60
2018-03-06T16:55:33.638Z,9.50
2018-03-06T16:58:01.094Z,9.50
2018-03-06T17:00:28.549Z,9.50
2018-03-06T17:02:56.011Z,9.40
2018-03-06T17:05:23.474Z,9.40
2018-03-06T17:07:51.702Z,9.20
2018-03-06T17:10:19.159Z,9.20
2018-03-06T17:12:46.614Z,9.20
2018-03-06T17:15:14.080Z,9.10
2018-03-06T17:17:41.531Z,9.00
2018-03-06T17:20:08.989Z,9.00
2018-03-06T17:22:36.458Z,8.90
2018-03-06T17:25:03.896Z,8.90
2018-03-06T17:27:31.341Z,8.80
2018-03-06T17:29:58.814Z,8.70
2018-03-06T17:32:26.270Z,8.70
2018-03-06T17:34:53.732Z,8.60
2018-03-06T17:37:21.254Z,8.60
2018-03-06T17:39:48.670Z,8.50
2018-03-06T17:42:16.134Z,8.40
2018-03-06T17:44:43.590Z,8.40
2018-03-06T17:47:11.050Z,8.30
2018-03-06T17:49:38.502Z,8.30
2018-03-06T17:52:05.965Z,8.20
2018-03-06T17:54:34.189Z,8.10
2018-03-06T17:57:01.650Z,8.10
2018-03-06T17:59:29.103Z,8.10
2018-03-06T18:01:56.565Z,8.00
2018-03-06T18:04:24.050Z,8.00
2018-03-06T18:06:51.505Z,7.90
2018-03-06T18:09:18.957Z,7.90
2018-03-06T18:11:46.421Z,7.80
2018-03-06T18:14:13.913Z,7.80
2018-03-06T18:16:41.376Z,7.80
2018-03-06T18:19:08.847Z,7.70
2018-03-06T18:21:36.305Z,7.60
2018-03-06T18:24:03.761Z,7.60
2018-03-06T18:26:31.221Z,7.50
2018-03-06T18:28:58.677Z,7.50
2018-03-06T18:31:26.138Z,7.40
2018-03-06T18:33:53.598Z,7.40
2018-03-06T18:36:21.060Z,7.30
2018-03-06T18:38:48.518Z,7.30
2018-03-06T18:41:15.982Z,7.20
2018-03-06T18:43:43.456Z,7.20
2018-03-06T18:46:10.916Z,7.10
2018-03-06T18:48:38.369Z,7.20
2018-03-06T18:51:10.717Z,7.10
2018-03-06T18:53:38.178Z,7.10
2018-03-06T18:56:05.633Z,7.10
2018-03-06T18:58:33.100Z,7.10
2018-03-06T19:04:24.981Z,6.90
2018-03-06T19:07:08.078Z,6.80
2018-03-06T19:09:35.603Z,6.80
2018-03-06T19:12:03.114Z,6.80
2018-03-06T19:14:30.601Z,6.70
2018-03-06T19:16:58.061Z,6.70
2018-03-06T19:19:25.523Z,6.70
2018-03-06T19:21:52.978Z,6.60
2018-03-06T19:24:20.526Z,6.60
2018-03-06T19:26:47.981Z,6.50
2018-03-06T19:29:15.555Z,6.50
2018-03-06T19:31:43.034Z,6.40
2018-03-06T19:34:10.505Z,6.40
2018-03-06T19:36:37.971Z,6.40
2018-03-06T19:39:05.430Z,6.30
2018-03-06T19:41:32.881Z,6.30
2018-03-06T19:44:00.342Z,6.30
2018-03-06T19:46:27.795Z,6.30
2018-03-06T19:48:55.313Z,6.20
2018-03-06T19:51:22.784Z,6.20
2018-03-06T19:53:50.260Z,6.20
2018-03-06T19:56:17.706Z,6.10
2018-03-06T19:58:45.197Z,6.10
2018-03-06T20:01:13.418Z,6.10
2018-03-06T20:03:40.874Z,6.10
2018-03-06T20:06:08.329Z,6.10
2018-03-06T20:08:35.798Z,6.10
2018-03-06T20:11:03.253Z,6.00
2018-03-06T20:13:30.713Z,6.10
2018-03-06T20:15:58.933Z,6.10
2018-03-06T20:18:27.158Z,6.10
2018-03-06T20:20:54.615Z,6.00
2018-03-06T20:23:22.839Z,6.10
2018-03-06T20:25:56.750Z,6.10
2018-03-06T20:28:24.982Z,6.10
2018-03-06T20:30:58.033Z,6.10
2018-03-06T20:33:25.496Z,6.10
2018-03-06T20:35:52.946Z,6.10
2018-03-06T20:38:26.146Z,6.10
2018-03-06T20:40:53.607Z,6.10
2018-03-06T20:43:21.054Z,6.10
2018-03-06T20:45:54.272Z,6.10
2018-03-06T20:48:21.724Z,6.20
2018-03-06T20:50:49.966Z,6.20
2018-03-06T20:53:23.173Z,6.20
2018-03-06T20:55:50.629Z,6.20
2018-03-06T20:58:18.085Z,6.30
2018-03-06T21:00:45.546Z,6.30
2018-03-06T21:03:13.009Z,6.30
2018-03-06T21:05:40.473Z,6.30
2018-03-06T21:08:07.938Z,6.30
2018-03-06T21:10:35.401Z,6.40
2018-03-06T21:13:02.855Z,6.40
2018-03-06T21:15:30.317Z,6.50
2018-03-06T21:17:57.770Z,6.60
2018-03-06T21:20:25.252Z,6.60
2018-03-06T21:22:52.685Z,6.70
2018-03-06T21:25:20.145Z,6.80
2018-03-06T21:27:47.596Z,6.80
2018-03-06T21:30:15.055Z,6.80
2018-03-06T21:32:42.508Z,6.90
2018-03-06T21:35:09.966Z,6.90
2018-03-06T21:37:37.417Z,6.90
2018-03-06T21:40:04.882Z,6.90
2018-03-06T21:42:32.333Z,7.00
2018-03-06T21:44:59.793Z,7.00
2018-03-06T21:47:27.240Z,7.10
2018-03-06T21:49:54.701Z,7.10
2018-03-06T21:52:22.154Z,7.10
2018-03-06T21:54:49.622Z,7.10
2018-03-06T21:57:17.089Z,7.10
2018-03-06T21:59:45.357Z,7.10
2018-03-06T22:02:12.814Z,7.10
2018-03-06T22:04:40.269Z,7.10
2018-03-06T22:07:07.721Z,7.10
2018-03-06T22:09:35.206Z,7.10
2018-03-06T22:12:03.426Z,7.10
2018-03-06T22:14:30.897Z,7.10
2018-03-06T22:16:58.358Z,7.10
2018-03-06T22:19:25.805Z,7.10
2018-03-06T22:21:53.264Z,7.10
2018-03-06T22:24:20.717Z,7.10
2018-03-06T22:26:48.188Z,7.10
2018-03-06T22:29:15.682Z,7.10
2018-03-06T22:31:43.901Z,7.10
2018-03-06T22:34:11.358Z,7.10
2018-03-06T22:36:38.842Z,7.10
2018-03-06T22:39:06.293Z,7.00
2018-03-06T22:41:33.782Z,7.00
2018-03-06T22:44:02.020Z,7.00
2018-03-06T22:46:29.502Z,7.00
2018-03-06T22:48:56.953Z,7.00
2018-03-06T22:51:24.417Z,7.00
2018-03-06T22:53:52.640Z,7.00
2018-03-06T22:56:20.093Z,7.00
2018-03-06T22:58:47.569Z,7.00
2018-03-06T23:01:15.047Z,7.00
2018-03-06T23:03:42.499Z,7.00
2018-03-06T23:06:09.973Z,7.00
2018-03-06T23:08:38.202Z,7.00
2018-03-06T23:11:05.694Z,7.00
2018-03-06T23:13:33.162Z,7.00
2018-03-06T23:16:00.607Z,7.00
2018-03-06T23:18:28.074Z,7.00
2018-03-06T23:20:56.299Z,7.00
2018-03-06T23:23:23.753Z,7.00
2018-03-06T23:25:51.219Z,7.00
2018-03-06T23:28:18.682Z,7.00
2018-03-06T23:30:46.143Z,7.00
2018-03-06T23:33:14.832Z,7.00
2018-03-06T23:35:43.233Z,7.00
2018-03-06T23:38:11.525Z,7.10
2018-03-06T23:40:40.094Z,7.10
2018-03-06T23:43:07.549Z,7.10
2018-03-06T23:45:35.026Z,7.10
2018-03-06T23:48:03.245Z,7.20
2018-03-06T23:50:30.729Z,7.10
2018-03-06T23:52:58.182Z,7.20
2018-03-06T23:55:25.631Z,7.20
2018-03-06T23:57:53.085Z,7.20
